createdAt,value
2023-04-09T00:00:33.524Z,557.00
2023-04-09T00:01:23.543Z,547.00
2023-04-09T00:02:13.685Z,553.00
2023-04-09T00:03:03.987Z,546.00
2023-04-09T00:03:54.069Z,555.00
2023-04-09T00:04:44.110Z,546.00
2023-04-09T00:05:34.100Z,554.00
2023-04-09T00:06:25.245Z,555.00
2023-04-09T00:07:14.250Z,548.00
2023-04-09T00:08:04.221Z,554.00
2023-04-09T00:08:54.445Z,552.00
2023-04-09T00:09:44.312Z,558.00
2023-04-09T00:10:34.401Z,555.00
2023-04-09T00:11:24.416Z,549.00
2023-04-09T00:12:14.534Z,558.00
2023-04-09T00:13:04.547Z,551.00
2023-04-09T00:13:54.625Z,548.00
2023-04-09T00:14:44.639Z,549.00
2023-04-09T00:15:34.744Z,554.00
2023-04-09T00:16:24.790Z,547.00
2023-04-09T00:17:14.840Z,547.00
2023-04-09T00:18:05.021Z,554.00
2023-04-09T00:18:55.212Z,551.00
2023-04-09T00:19:45.265Z,544.00
2023-04-09T00:20:35.362Z,549.00
2023-04-09T00:21:25.373Z,543.00
2023-04-09T00:22:15.453Z,544.00
2023-04-09T00:23:05.534Z,537.00
2023-04-09T00:23:55.583Z,556.00
2023-04-09T00:24:45.648Z,545.00
2023-04-09T00:25:35.739Z,547.00
2023-04-09T00:26:25.753Z,541.00
2023-04-09T00:27:15.818Z,546.00
2023-04-09T00:28:05.972Z,542.00
2023-04-09T00:28:56.034Z,544.00
2023-04-09T00:29:46.101Z,537.00
2023-04-09T00:30:36.469Z,544.00
2023-04-09T00:31:26.521Z,542.00
2023-04-09T00:32:16.574Z,541.00
2023-04-09T00:33:06.741Z,536.00
2023-04-09T00:33:56.690Z,543.00
2023-04-09T00:34:46.754Z,544.00
2023-04-09T00:35:36.844Z,552.00
2023-04-09T00:36:27.121Z,559.00
2023-04-09T00:37:16.950Z,555.00
2023-04-09T00:38:07.000Z,554.00
2023-04-09T00:38:57.084Z,557.00
2023-04-09T00:39:47.356Z,550.00
2023-04-09T00:40:37.446Z,552.00
2023-04-09T00:41:27.451Z,549.00
2023-04-09T00:42:17.513Z,552.00
2023-04-09T00:43:07.587Z,560.00
2023-04-09T00:43:57.652Z,563.00
2023-04-09T00:44:47.719Z,555.00
2023-04-09T00:45:37.845Z,552.00
2023-04-09T00:46:27.846Z,562.00
2023-04-09T00:47:17.917Z,562.00
2023-04-09T00:48:07.948Z,569.00
2023-04-09T00:48:58.187Z,558.00
2023-04-09T00:49:48.261Z,558.00
2023-04-09T00:50:38.340Z,553.00
2023-04-09T00:51:28.376Z,558.00
2023-04-09T00:52:18.431Z,555.00
2023-04-09T00:53:08.515Z,565.00
2023-04-09T00:53:58.575Z,565.00
2023-04-09T00:54:48.663Z,557.00
2023-04-09T00:55:38.731Z,555.00
2023-04-09T00:56:28.756Z,566.00
2023-04-09T00:57:18.835Z,561.00
2023-04-09T00:58:09.039Z,555.00
2023-04-09T00:58:59.121Z,561.00
2023-04-09T00:59:49.139Z,560.00
2023-04-09T01:00:39.234Z,561.00
2023-04-09T01:01:29.312Z,552.00
2023-04-09T01:02:19.389Z,548.00
2023-04-09T01:03:09.528Z,553.00
2023-04-09T01:03:59.394Z,556.00
2023-04-09T01:04:49.455Z,557.00
2023-04-09T01:05:39.542Z,552.00
2023-04-09T01:06:29.566Z,552.00
2023-04-09T01:07:19.896Z,558.00
2023-04-09T01:08:09.958Z,549.00
2023-04-09T01:09:00.044Z,551.00
2023-04-09T01:09:50.335Z,543.00
2023-04-09T01:10:40.411Z,537.00
2023-04-09T01:11:30.430Z,535.00
2023-04-09T01:12:20.506Z,542.00
2023-04-09T01:13:10.572Z,535.00
2023-04-09T01:14:00.643Z,531.00
2023-04-09T01:14:50.703Z,535.00
2023-04-09T01:15:40.803Z,536.00
2023-04-09T01:16:30.859Z,544.00
2023-04-09T01:17:20.910Z,534.00
2023-04-09T01:18:10.963Z,541.00
2023-04-09T01:19:01.116Z,533.00
2023-04-09T01:19:51.183Z,530.00
2023-04-09T01:20:41.265Z,537.00
2023-04-09T01:21:31.285Z,529.00
2023-04-09T01:22:21.360Z,532.00
2023-04-09T01:23:11.382Z,527.00
2023-04-09T01:24:01.453Z,530.00
2023-04-09T01:24:51.515Z,535.00
2023-04-09T01:25:41.632Z,529.00
2023-04-09T01:26:31.626Z,521.00
2023-04-09T01:27:21.706Z,529.00
2023-04-09T01:28:11.932Z,534.00
2023-04-09T01:29:02.008Z,528.00
2023-04-09T01:29:52.065Z,541.00
2023-04-09T01:30:42.212Z,538.00
2023-04-09T01:31:32.185Z,531.00
2023-04-09T01:32:22.271Z,526.00
2023-04-09T01:33:12.269Z,532.00
2023-04-09T01:34:02.346Z,526.00
2023-04-09T01:34:52.401Z,526.00
2023-04-09T01:35:42.507Z,521.00
2023-04-09T01:36:32.526Z,516.00
2023-04-09T01:37:22.595Z,523.00
2023-04-09T01:38:12.667Z,520.00
2023-04-09T01:39:02.754Z,514.00
2023-04-09T01:39:52.792Z,512.00
2023-04-09T01:40:42.885Z,506.00
2023-04-09T01:41:32.923Z,520.00
2023-04-09T01:42:22.954Z,523.00
2023-04-09T01:43:13.021Z,514.00
2023-04-09T01:44:03.269Z,506.00
2023-04-09T01:44:53.289Z,517.00
2023-04-09T01:45:43.422Z,514.00
2023-04-09T01:46:33.473Z,516.00
2023-04-09T01:47:23.521Z,520.00
2023-04-09T01:48:13.567Z,516.00
2023-04-09T01:49:03.638Z,530.00
2023-04-09T01:49:53.703Z,518.00
2023-04-09T01:50:43.785Z,510.00
2023-04-09T01:51:33.819Z,512.00
2023-04-09T01:52:23.866Z,514.00
2023-04-09T01:53:14.051Z,512.00
2023-04-09T01:54:04.118Z,515.00
2023-04-09T01:54:54.176Z,510.00
2023-04-09T01:55:44.278Z,522.00
2023-04-09T01:56:34.296Z,520.00
2023-04-09T01:57:24.401Z,513.00
2023-04-09T01:58:14.396Z,514.00
2023-04-09T01:59:04.468Z,514.00
2023-04-09T01:59:54.525Z,505.00
2023-04-09T02:00:44.618Z,507.00
2023-04-09T02:01:34.708Z,511.00
2023-04-09T02:02:25.044Z,509.00
2023-04-09T02:03:15.066Z,515.00
2023-04-09T02:04:05.046Z,509.00
2023-04-09T02:04:55.069Z,511.00
2023-04-09T02:05:45.155Z,515.00
2023-04-09T02:06:35.167Z,523.00
2023-04-09T02:07:25.232Z,511.00
2023-04-09T02:08:15.293Z,516.00
2023-04-09T02:09:05.376Z,519.00
2023-04-09T02:09:55.428Z,511.00
2023-04-09T02:10:45.524Z,515.00
2023-04-09T02:11:35.777Z,518.00
2023-04-09T02:12:25.865Z,537.00
2023-04-09T02:13:15.911Z,523.00
2023-04-09T02:14:06.195Z,533.00
2023-04-09T02:14:56.254Z,538.00
2023-04-09T02:15:46.371Z,532.00
2023-04-09T02:16:36.410Z,528.00
2023-04-09T02:17:26.446Z,541.00
2023-04-09T02:18:16.497Z,536.00
2023-04-09T02:19:06.566Z,533.00
2023-04-09T02:19:56.631Z,539.00
2023-04-09T02:20:46.718Z,525.00
2023-04-09T02:21:36.728Z,534.00
2023-04-09T02:22:26.808Z,530.00
2023-04-09T02:23:17.038Z,532.00
2023-04-09T02:24:07.110Z,533.00
2023-04-09T02:24:57.174Z,528.00
2023-04-09T02:25:47.264Z,521.00
2023-04-09T02:26:37.301Z,530.00
2023-04-09T02:27:27.363Z,526.00
2023-04-09T02:28:17.457Z,522.00
2023-04-09T02:29:07.504Z,514.00
2023-04-09T02:29:57.577Z,517.00
2023-04-09T02:30:48.307Z,516.00
2023-04-09T02:31:37.679Z,513.00
2023-04-09T02:32:28.061Z,513.00
2023-04-09T02:33:18.078Z,515.00
2023-04-09T02:34:08.156Z,514.00
2023-04-09T02:34:58.436Z,517.00
2023-04-09T02:35:48.551Z,518.00
2023-04-09T02:36:38.557Z,511.00
2023-04-09T02:37:28.596Z,513.00
2023-04-09T02:38:18.660Z,519.00
2023-04-09T02:39:08.729Z,507.00
2023-04-09T02:39:58.795Z,509.00
2023-04-09T02:40:48.880Z,509.00
2023-04-09T02:41:38.890Z,514.00
2023-04-09T02:42:28.987Z,505.00
2023-04-09T02:43:19.023Z,512.00
2023-04-09T02:44:09.291Z,504.00
2023-04-09T02:44:59.332Z,506.00
2023-04-09T02:45:49.419Z,506.00
2023-04-09T02:46:39.731Z,503.00
2023-04-09T02:47:29.783Z,500.00
2023-04-09T02:48:19.818Z,504.00
2023-04-09T02:49:10.145Z,509.00
2023-04-09T02:50:00.242Z,506.00
2023-04-09T02:50:50.295Z,506.00
2023-04-09T02:51:40.319Z,510.00
2023-04-09T02:52:30.405Z,511.00
2023-04-09T02:53:20.418Z,505.00
2023-04-09T02:54:10.486Z,505.00
2023-04-09T02:55:00.570Z,504.00
2023-04-09T02:55:50.635Z,513.00
2023-04-09T02:56:40.684Z,505.00
2023-04-09T02:57:30.689Z,505.00
2023-04-09T02:58:21.056Z,513.00
2023-04-09T02:59:11.108Z,504.00
2023-04-09T03:00:01.144Z,507.00
2023-04-09T03:00:51.205Z,507.00
2023-04-09T03:01:41.339Z,513.00
2023-04-09T03:02:31.408Z,506.00
2023-04-09T03:03:21.548Z,507.00
2023-04-09T03:04:11.525Z,505.00
2023-04-09T03:05:01.472Z,509.00
2023-04-09T03:05:51.544Z,509.00
2023-04-09T03:06:41.564Z,507.00
2023-04-09T03:07:31.638Z,509.00
2023-04-09T03:08:21.705Z,503.00
2023-04-09T03:09:11.758Z,506.00
2023-04-09T03:10:01.798Z,510.00
2023-04-09T03:10:51.886Z,507.00
2023-04-09T03:11:41.930Z,508.00
2023-04-09T03:12:31.985Z,507.00
2023-04-09T03:13:22.046Z,506.00
2023-04-09T03:14:12.286Z,509.00
2023-04-09T03:15:02.361Z,506.00
2023-04-09T03:15:52.521Z,519.00
2023-04-09T03:16:42.747Z,513.00
2023-04-09T03:17:32.860Z,513.00
2023-04-09T03:18:22.848Z,518.00
2023-04-09T03:19:12.930Z,517.00
2023-04-09T03:20:03.000Z,513.00
2023-04-09T03:20:53.075Z,512.00
2023-04-09T03:21:43.145Z,512.00
2023-04-09T03:22:33.166Z,514.00
2023-04-09T03:23:23.222Z,516.00
2023-04-09T03:24:13.301Z,518.00
2023-04-09T03:25:03.351Z,511.00
2023-04-09T03:25:53.670Z,506.00
2023-04-09T03:26:43.705Z,512.00
2023-04-09T03:27:33.758Z,510.00
2023-04-09T03:28:24.090Z,510.00
2023-04-09T03:29:14.151Z,514.00
2023-04-09T03:30:04.225Z,517.00
2023-04-09T03:30:54.564Z,522.00
2023-04-09T03:31:44.601Z,512.00
2023-04-09T03:32:34.675Z,510.00
2023-04-09T03:33:24.663Z,519.00
2023-04-09T03:34:14.741Z,513.00
2023-04-09T03:35:04.798Z,525.00
2023-04-09T03:35:54.917Z,519.00
2023-04-09T03:36:44.947Z,522.00
2023-04-09T03:37:34.973Z,518.00
2023-04-09T03:38:25.000Z,515.00
2023-04-09T03:39:15.072Z,519.00
2023-04-09T03:40:05.348Z,522.00
2023-04-09T03:40:55.433Z,528.00
2023-04-09T03:41:45.457Z,523.00
2023-04-09T03:42:35.535Z,522.00
2023-04-09T03:43:25.604Z,522.00
2023-04-09T03:44:15.668Z,529.00
2023-04-09T03:45:05.738Z,514.00
2023-04-09T03:45:55.825Z,520.00
2023-04-09T03:46:45.870Z,520.00
2023-04-09T03:47:35.918Z,525.00
2023-04-09T03:48:25.950Z,532.00
2023-04-09T03:49:16.217Z,537.00
2023-04-09T03:50:06.261Z,540.00
2023-04-09T03:50:56.364Z,536.00
2023-04-09T03:51:46.653Z,548.00
2023-04-09T03:52:36.722Z,548.00
2023-04-09T03:53:26.784Z,546.00
2023-04-09T03:54:16.870Z,549.00
2023-04-09T03:55:06.923Z,544.00
2023-04-09T03:55:57.010Z,543.00
2023-04-09T03:56:47.042Z,544.00
2023-04-09T03:57:37.115Z,546.00
2023-04-09T03:58:27.177Z,542.00
2023-04-09T03:59:17.258Z,535.00
2023-04-09T04:00:07.290Z,539.00
2023-04-09T04:00:57.581Z,540.00
2023-04-09T04:01:47.668Z,541.00
2023-04-09T04:02:37.851Z,541.00
2023-04-09T04:03:27.817Z,543.00
2023-04-09T04:04:18.222Z,544.00
2023-04-09T04:05:07.950Z,537.00
2023-04-09T04:05:58.047Z,532.00
2023-04-09T04:06:48.070Z,544.00
2023-04-09T04:07:38.148Z,537.00
2023-04-09T04:08:28.211Z,533.00
2023-04-09T04:09:18.282Z,530.00
2023-04-09T04:10:08.349Z,533.00
2023-04-09T04:10:58.431Z,529.00
2023-04-09T04:11:48.460Z,533.00
2023-04-09T04:12:38.537Z,531.00
2023-04-09T04:13:28.652Z,522.00
2023-04-09T04:14:18.820Z,517.00
2023-04-09T04:15:08.890Z,521.00
2023-04-09T04:15:58.999Z,515.00
2023-04-09T04:16:49.257Z,521.00
2023-04-09T04:17:39.366Z,523.00
2023-04-09T04:18:29.381Z,525.00
2023-04-09T04:19:19.468Z,521.00
2023-04-09T04:20:09.522Z,531.00
2023-04-09T04:20:59.601Z,527.00
2023-04-09T04:21:49.622Z,522.00
2023-04-09T04:22:39.694Z,521.00
2023-04-09T04:23:29.725Z,524.00
2023-04-09T04:24:19.797Z,519.00
2023-04-09T04:25:09.852Z,522.00
2023-04-09T04:26:00.145Z,517.00
2023-04-09T04:26:50.137Z,526.00
2023-04-09T04:27:40.212Z,518.00
2023-04-09T04:28:30.532Z,515.00
2023-04-09T04:29:20.614Z,514.00
2023-04-09T04:30:10.666Z,514.00
2023-04-09T04:31:01.004Z,517.00
2023-04-09T04:31:51.052Z,520.00
2023-04-09T04:32:41.110Z,526.00
2023-04-09T04:33:31.150Z,518.00
2023-04-09T04:34:21.223Z,524.00
2023-04-09T04:35:11.327Z,513.00
2023-04-09T04:36:01.411Z,516.00
2023-04-09T04:36:51.409Z,515.00
2023-04-09T04:37:41.453Z,509.00
2023-04-09T04:38:31.519Z,516.00
2023-04-09T04:39:21.599Z,518.00
2023-04-09T04:40:11.865Z,506.00
2023-04-09T04:41:01.961Z,507.00
2023-04-09T04:41:51.963Z,504.00
2023-04-09T04:42:42.045Z,505.00
2023-04-09T04:43:32.099Z,506.00
2023-04-09T04:44:22.179Z,509.00
2023-04-09T04:45:12.205Z,504.00
2023-04-09T04:46:02.375Z,502.00
2023-04-09T04:46:52.326Z,512.00
2023-04-09T04:47:42.440Z,508.00
2023-04-09T04:48:32.434Z,502.00
2023-04-09T04:49:22.508Z,505.00
2023-04-09T04:50:12.563Z,509.00
2023-04-09T04:51:02.672Z,514.00
2023-04-09T04:51:52.684Z,516.00
2023-04-09T04:52:42.772Z,521.00
2023-04-09T04:53:32.797Z,509.00
2023-04-09T04:54:22.883Z,505.00
2023-04-09T04:55:12.935Z,509.00
2023-04-09T04:56:03.254Z,508.00
2023-04-09T04:56:53.268Z,506.00
2023-04-09T04:57:43.338Z,503.00
2023-04-09T04:58:33.409Z,508.00
2023-04-09T04:59:23.481Z,505.00
2023-04-09T05:00:13.549Z,516.00
2023-04-09T05:01:03.694Z,508.00
2023-04-09T05:01:53.697Z,510.00
2023-04-09T05:02:43.801Z,510.00
2023-04-09T05:03:33.805Z,511.00
2023-04-09T05:04:23.796Z,508.00
2023-04-09T05:05:14.138Z,513.00
2023-04-09T05:06:04.205Z,511.00
2023-04-09T05:06:54.273Z,508.00
2023-04-09T05:07:44.270Z,513.00
2023-04-09T05:08:34.338Z,514.00
2023-04-09T05:09:24.408Z,508.00
2023-04-09T05:10:14.476Z,503.00
2023-04-09T05:11:04.556Z,508.00
2023-04-09T05:11:54.581Z,507.00
2023-04-09T05:12:44.655Z,510.00
2023-04-09T05:13:34.703Z,505.00
2023-04-09T05:14:24.963Z,507.00
2023-04-09T05:15:14.979Z,509.00
2023-04-09T05:16:05.067Z,505.00
2023-04-09T05:16:55.157Z,509.00
2023-04-09T05:17:45.164Z,508.00
2023-04-09T05:18:35.218Z,507.00
2023-04-09T05:19:25.298Z,506.00
2023-04-09T05:20:15.314Z,510.00
2023-04-09T05:21:05.406Z,511.00
2023-04-09T05:21:55.420Z,502.00
2023-04-09T05:22:45.514Z,509.00
2023-04-09T05:23:35.814Z,513.00
2023-04-09T05:24:25.871Z,504.00
2023-04-09T05:25:15.974Z,512.00
2023-04-09T05:26:06.031Z,506.00
2023-04-09T05:26:56.052Z,514.00
2023-04-09T05:27:46.134Z,510.00
2023-04-09T05:28:36.204Z,509.00
2023-04-09T05:29:26.239Z,508.00
2023-04-09T05:30:16.289Z,515.00
2023-04-09T05:31:12.831Z,509.00
2023-04-09T05:31:56.403Z,509.00
2023-04-09T05:32:46.483Z,509.00
2023-04-09T05:33:36.550Z,511.00
2023-04-09T05:34:26.619Z,511.00
2023-04-09T05:35:16.686Z,516.00
2023-04-09T05:36:06.763Z,512.00
2023-04-09T05:36:56.812Z,522.00
2023-04-09T05:37:46.844Z,521.00
2023-04-09T05:38:36.941Z,519.00
2023-04-09T05:39:27.157Z,517.00
2023-04-09T05:40:17.217Z,518.00
2023-04-09T05:41:07.276Z,525.00
2023-04-09T05:41:57.355Z,517.00
2023-04-09T05:42:47.372Z,526.00
2023-04-09T05:43:37.446Z,518.00
2023-04-09T05:44:27.515Z,522.00
2023-04-09T05:45:17.590Z,517.00
2023-04-09T05:46:07.655Z,518.00
2023-04-09T05:46:57.701Z,517.00
2023-04-09T05:47:47.767Z,515.00
2023-04-09T05:48:38.045Z,512.00
2023-04-09T05:49:28.100Z,515.00
2023-04-09T05:50:18.164Z,519.00
2023-04-09T05:51:08.445Z,503.00
2023-04-09T05:51:58.555Z,514.00
2023-04-09T05:52:48.563Z,515.00
2023-04-09T05:53:38.642Z,514.00
2023-04-09T05:54:28.721Z,505.00
2023-04-09T05:55:18.739Z,510.00
2023-04-09T05:56:08.792Z,509.00
2023-04-09T05:56:58.879Z,513.00
2023-04-09T05:57:48.903Z,513.00
2023-04-09T05:58:38.979Z,526.00
2023-04-09T05:59:29.005Z,518.00
2023-04-09T06:00:19.341Z,510.00
2023-04-09T06:01:09.361Z,520.00
2023-04-09T06:01:59.513Z,520.00
2023-04-09T06:02:49.533Z,517.00
2023-04-09T06:03:39.720Z,513.00
2023-04-09T06:04:29.581Z,513.00
2023-04-09T06:05:19.615Z,524.00
2023-04-09T06:06:09.654Z,523.00
2023-04-09T06:06:59.738Z,519.00
2023-04-09T06:07:49.796Z,517.00
2023-04-09T06:08:39.873Z,522.00
2023-04-09T06:09:30.180Z,517.00
2023-04-09T06:10:20.272Z,524.00
2023-04-09T06:11:10.342Z,517.00
2023-04-09T06:12:00.617Z,529.00
2023-04-09T06:12:50.705Z,529.00
2023-04-09T06:13:40.767Z,519.00
2023-04-09T06:14:31.047Z,518.00
2023-04-09T06:15:21.173Z,514.00
2023-04-09T06:16:11.320Z,515.00
2023-04-09T06:17:01.511Z,524.00
2023-04-09T06:17:51.565Z,513.00
2023-04-09T06:18:41.603Z,518.00
2023-04-09T06:19:31.926Z,509.00
2023-04-09T06:20:22.001Z,516.00
2023-04-09T06:21:12.059Z,519.00
2023-04-09T06:22:02.089Z,508.00
2023-04-09T06:22:52.115Z,518.00
2023-04-09T06:23:42.182Z,518.00
2023-04-09T06:24:32.253Z,514.00
2023-04-09T06:25:22.315Z,518.00
2023-04-09T06:26:12.405Z,518.00
2023-04-09T06:27:02.473Z,519.00
2023-04-09T06:27:52.492Z,526.00
2023-04-09T06:28:42.815Z,517.00
2023-04-09T06:29:32.884Z,511.00
2023-04-09T06:30:22.954Z,511.00
2023-04-09T06:31:13.247Z,511.00
2023-04-09T06:32:03.289Z,517.00
2023-04-09T06:32:55.300Z,513.00
2023-04-09T06:33:43.364Z,511.00
2023-04-09T06:34:33.427Z,520.00
2023-04-09T06:35:23.497Z,523.00
2023-04-09T06:36:13.606Z,535.00
2023-04-09T06:37:03.661Z,544.00
2023-04-09T06:37:53.935Z,540.00
2023-04-09T06:38:44.009Z,533.00
2023-04-09T06:39:34.056Z,542.00
2023-04-09T06:40:24.082Z,535.00
2023-04-09T06:41:14.130Z,539.00
2023-04-09T06:42:04.243Z,536.00
2023-04-09T06:42:54.289Z,539.00
2023-04-09T06:43:44.322Z,530.00
2023-04-09T06:44:34.374Z,538.00
2023-04-09T06:45:24.433Z,548.00
2023-04-09T06:46:14.456Z,541.00
2023-04-09T06:47:04.789Z,522.00
2023-04-09T06:47:54.860Z,530.00
2023-04-09T06:48:44.896Z,528.00
2023-04-09T06:49:34.930Z,530.00
2023-04-09T06:50:25.010Z,534.00
2023-04-09T06:51:15.095Z,532.00
2023-04-09T06:52:05.091Z,520.00
2023-04-09T06:52:55.131Z,514.00
2023-04-09T06:53:45.225Z,520.00
2023-04-09T06:54:35.220Z,520.00
2023-04-09T06:55:25.291Z,525.00
2023-04-09T06:56:15.351Z,545.00
2023-04-09T06:57:05.448Z,537.00
2023-04-09T06:57:55.496Z,544.00
2023-04-09T06:58:45.559Z,538.00
2023-04-09T06:59:35.577Z,534.00
2023-04-09T07:00:25.648Z,533.00
2023-04-09T07:01:15.714Z,529.00
2023-04-09T07:02:05.918Z,528.00
2023-04-09T07:02:56.318Z,532.00
2023-04-09T07:03:46.156Z,526.00
2023-04-09T07:04:36.293Z,520.00
2023-04-09T07:05:26.222Z,520.00
2023-04-09T07:06:16.284Z,521.00
2023-04-09T07:07:06.363Z,521.00
2023-04-09T07:07:56.420Z,521.00
2023-04-09T07:08:46.489Z,516.00
2023-04-09T07:09:36.546Z,519.00
2023-04-09T07:10:26.715Z,515.00
2023-04-09T07:11:16.668Z,515.00
2023-04-09T07:12:06.947Z,514.00
2023-04-09T07:12:56.970Z,518.00
2023-04-09T07:13:47.060Z,508.00
2023-04-09T07:14:37.087Z,515.00
2023-04-09T07:15:27.177Z,509.00
2023-04-09T07:16:17.241Z,516.00
2023-04-09T07:17:07.255Z,512.00
2023-04-09T07:17:57.309Z,512.00
2023-04-09T07:18:47.345Z,511.00
2023-04-09T07:19:37.413Z,519.00
2023-04-09T07:20:27.485Z,512.00
2023-04-09T07:21:17.777Z,508.00
2023-04-09T07:22:07.883Z,511.00
2023-04-09T07:22:57.904Z,517.00
2023-04-09T07:23:47.968Z,524.00
2023-04-09T07:24:38.038Z,525.00
2023-04-09T07:25:28.137Z,529.00
2023-04-09T07:26:18.133Z,528.00
2023-04-09T07:27:08.220Z,520.00
2023-04-09T07:27:58.242Z,524.00
2023-04-09T07:28:48.342Z,511.00
2023-04-09T07:29:38.358Z,526.00
2023-04-09T07:30:28.635Z,527.00
2023-04-09T07:32:08.766Z,518.00
2023-04-09T07:32:58.806Z,514.00
2023-04-09T07:33:48.874Z,527.00
2023-04-09T07:34:38.897Z,520.00
2023-04-09T07:35:28.966Z,521.00
2023-04-09T07:36:19.038Z,525.00
2023-04-09T07:37:09.119Z,520.00
2023-04-09T07:37:59.138Z,529.00
2023-04-09T07:38:49.212Z,528.00
2023-04-09T07:39:39.235Z,529.00
2023-04-09T07:40:29.311Z,527.00
2023-04-09T07:41:19.376Z,529.00
2023-04-09T07:42:09.458Z,531.00
2023-04-09T07:42:59.481Z,527.00
2023-04-09T07:43:49.556Z,533.00
2023-04-09T07:44:39.653Z,521.00
2023-04-09T07:45:29.704Z,533.00
2023-04-09T07:46:19.964Z,523.00
2023-04-09T07:47:10.257Z,524.00
2023-04-09T07:48:00.161Z,523.00
2023-04-09T07:48:50.839Z,521.00
2023-04-09T07:49:40.462Z,523.00
2023-04-09T07:50:30.494Z,514.00
2023-04-09T07:51:20.556Z,521.00
2023-04-09T07:52:10.680Z,524.00
2023-04-09T07:53:00.710Z,518.00
2023-04-09T07:53:50.743Z,522.00
2023-04-09T07:54:40.778Z,526.00
2023-04-09T07:55:30.864Z,529.00
2023-04-09T07:56:20.915Z,533.00
2023-04-09T07:57:10.985Z,529.00
2023-04-09T07:58:01.270Z,527.00
2023-04-09T07:58:51.612Z,539.00
2023-04-09T07:59:41.398Z,530.00
2023-04-09T08:00:31.504Z,530.00
2023-04-09T08:01:21.528Z,524.00
2023-04-09T08:02:14.328Z,533.00
2023-04-09T08:03:01.832Z,526.00
2023-04-09T08:03:52.129Z,519.00
2023-04-09T08:04:42.124Z,528.00
2023-04-09T08:05:32.013Z,532.00
2023-04-09T08:06:22.339Z,528.00
2023-04-09T08:07:12.415Z,527.00
2023-04-09T08:08:02.460Z,529.00
2023-04-09T08:08:52.695Z,522.00
2023-04-09T08:09:42.566Z,529.00
2023-04-09T08:10:32.614Z,528.00
2023-04-09T08:11:22.680Z,530.00
2023-04-09T08:12:12.838Z,531.00
2023-04-09T08:13:03.041Z,532.00
2023-04-09T08:13:53.115Z,528.00
2023-04-09T08:14:43.182Z,525.00
2023-04-09T08:15:33.507Z,521.00
2023-04-09T08:16:23.649Z,523.00
2023-04-09T08:17:13.624Z,529.00
2023-04-09T08:18:03.714Z,532.00
2023-04-09T08:18:53.884Z,538.00
2023-04-09T08:19:43.773Z,526.00
2023-04-09T08:20:33.800Z,532.00
2023-04-09T08:21:23.868Z,523.00
2023-04-09T08:22:13.960Z,529.00
2023-04-09T08:23:03.984Z,528.00
2023-04-09T08:23:54.047Z,527.00
2023-04-09T08:24:44.155Z,524.00
2023-04-09T08:25:34.148Z,524.00
2023-04-09T08:26:24.211Z,514.00
2023-04-09T08:27:14.298Z,523.00
2023-04-09T08:28:04.332Z,516.00
2023-04-09T08:28:54.718Z,532.00
2023-04-09T08:29:44.456Z,534.00
2023-04-09T08:30:34.574Z,538.00
2023-04-09T08:31:24.579Z,530.00
2023-04-09T08:32:14.760Z,534.00
2023-04-09T08:33:04.685Z,526.00
2023-04-09T08:33:54.743Z,523.00
2023-04-09T08:34:44.801Z,520.00
2023-04-09T08:35:34.875Z,521.00
2023-04-09T08:36:24.991Z,521.00
2023-04-09T08:37:15.039Z,522.00
2023-04-09T08:38:05.285Z,513.00
2023-04-09T08:38:55.718Z,520.00
2023-04-09T08:39:45.393Z,518.00
2023-04-09T08:40:35.483Z,518.00
2023-04-09T08:41:25.531Z,515.00
2023-04-09T08:42:15.625Z,516.00
2023-04-09T08:43:05.652Z,517.00
2023-04-09T08:43:58.215Z,520.00
2023-04-09T08:44:45.785Z,515.00
2023-04-09T08:45:35.901Z,520.00
2023-04-09T08:46:25.938Z,520.00
2023-04-09T08:47:16.022Z,517.00
2023-04-09T08:48:06.262Z,518.00
2023-04-09T08:48:56.421Z,511.00
2023-04-09T08:49:46.263Z,512.00
2023-04-09T08:50:36.346Z,518.00
2023-04-09T08:51:26.382Z,506.00
2023-04-09T08:52:16.457Z,506.00
2023-04-09T08:53:06.497Z,513.00
2023-04-09T08:53:56.598Z,510.00
2023-04-09T08:54:46.676Z,512.00
2023-04-09T08:55:36.710Z,507.00
2023-04-09T08:56:26.738Z,509.00
2023-04-09T08:57:17.104Z,507.00
2023-04-09T08:58:07.120Z,504.00
2023-04-09T08:58:57.186Z,506.00
2023-04-09T08:59:47.223Z,512.00
2023-04-09T09:00:37.254Z,519.00
2023-04-09T09:01:27.416Z,507.00
2023-04-09T09:02:17.472Z,510.00
2023-04-09T09:03:07.530Z,514.00
2023-04-09T09:03:57.645Z,506.00
2023-04-09T09:04:47.570Z,515.00
2023-04-09T09:05:37.645Z,513.00
2023-04-09T09:06:27.940Z,505.00
2023-04-09T09:07:18.041Z,510.00
2023-04-09T09:08:08.069Z,510.00
2023-04-09T09:08:58.127Z,507.00
2023-04-09T09:09:48.196Z,512.00
2023-04-09T09:10:38.265Z,511.00
2023-04-09T09:11:28.327Z,509.00
2023-04-09T09:12:18.405Z,514.00
2023-04-09T09:13:08.437Z,511.00
2023-04-09T09:13:58.519Z,512.00
2023-04-09T09:14:48.564Z,504.00
2023-04-09T09:15:38.844Z,505.00
2023-04-09T09:16:28.928Z,504.00
2023-04-09T09:17:19.029Z,503.00
2023-04-09T09:18:09.117Z,500.00
2023-04-09T09:18:59.549Z,503.00
2023-04-09T09:19:49.133Z,512.00
2023-04-09T09:20:39.213Z,509.00
2023-04-09T09:21:29.247Z,514.00
2023-04-09T09:22:19.360Z,516.00
2023-04-09T09:23:09.395Z,505.00
2023-04-09T09:23:59.474Z,512.00
2023-04-09T09:24:50.578Z,514.00
2023-04-09T09:25:39.848Z,517.00
2023-04-09T09:26:29.931Z,510.00
2023-04-09T09:27:19.987Z,511.00
2023-04-09T09:28:10.025Z,513.00
2023-04-09T09:29:00.129Z,519.00
2023-04-09T09:29:50.111Z,515.00
2023-04-09T09:30:40.212Z,510.00
2023-04-09T09:31:30.302Z,515.00
2023-04-09T09:32:20.379Z,519.00
2023-04-09T09:33:10.390Z,524.00
2023-04-09T09:34:00.671Z,509.00
2023-04-09T09:34:50.717Z,517.00
2023-04-09T09:35:40.761Z,516.00
2023-04-09T09:36:30.831Z,516.00
2023-04-09T09:37:20.929Z,516.00
2023-04-09T09:38:10.961Z,516.00
2023-04-09T09:39:01.034Z,509.00
2023-04-09T09:39:51.109Z,522.00
2023-04-09T09:40:41.194Z,528.00
2023-04-09T09:41:31.252Z,518.00
2023-04-09T09:42:21.364Z,518.00
2023-04-09T09:43:13.446Z,516.00
2023-04-09T09:44:01.625Z,514.00
2023-04-09T09:44:51.694Z,523.00
2023-04-09T09:45:41.920Z,524.00
2023-04-09T09:46:31.885Z,514.00
2023-04-09T09:47:21.898Z,523.00
2023-04-09T09:48:11.939Z,515.00
2023-04-09T09:49:01.985Z,517.00
2023-04-09T09:49:52.244Z,514.00
2023-04-09T09:50:42.297Z,512.00
2023-04-09T09:51:32.334Z,512.00
2023-04-09T09:52:22.457Z,517.00
2023-04-09T09:53:12.450Z,517.00
2023-04-09T09:54:02.536Z,505.00
2023-04-09T09:54:52.588Z,514.00
2023-04-09T09:55:42.672Z,514.00
2023-04-09T09:56:32.853Z,509.00
2023-04-09T09:57:22.797Z,506.00
2023-04-09T09:58:12.842Z,519.00
2023-04-09T09:59:03.117Z,517.00
2023-04-09T09:59:53.187Z,515.00
2023-04-09T10:00:43.261Z,515.00
2023-04-09T10:01:33.362Z,507.00
2023-04-09T10:02:23.468Z,525.00
2023-04-09T10:03:13.465Z,531.00
2023-04-09T10:04:03.461Z,530.00
2023-04-09T10:04:53.482Z,535.00
2023-04-09T10:05:43.646Z,529.00
2023-04-09T10:06:33.679Z,535.00
2023-04-09T10:07:23.774Z,528.00
2023-04-09T10:08:13.808Z,525.00
2023-04-09T10:09:03.864Z,528.00
2023-04-09T10:09:53.924Z,517.00
2023-04-09T10:10:43.986Z,517.00
2023-04-09T10:11:34.048Z,513.00
2023-04-09T10:12:24.145Z,507.00
2023-04-09T10:13:14.177Z,515.00
2023-04-09T10:14:04.240Z,511.00
2023-04-09T10:14:54.527Z,521.00
2023-04-09T10:15:44.695Z,510.00
2023-04-09T10:16:34.648Z,513.00
2023-04-09T10:17:24.756Z,515.00
2023-04-09T10:18:14.753Z,517.00
2023-04-09T10:19:04.838Z,516.00
2023-04-09T10:19:54.854Z,519.00
2023-04-09T10:20:44.941Z,524.00
2023-04-09T10:21:35.027Z,520.00
2023-04-09T10:22:25.093Z,510.00
2023-04-09T10:23:15.123Z,512.00
2023-04-09T10:24:05.454Z,512.00
2023-04-09T10:24:55.516Z,510.00
2023-04-09T10:25:45.603Z,517.00